Diamond Orchid — 9VNH4 — position and weather

sailwx.info

Track history (hours):
 
Tides and Currents Weather Stations Pressure Air Temp Water Temp Dewpoint Dewpoint Depression Visibility Wind Speed Wind Dir Waves Ship Positions

Diamond Orchid

Last reported at 2014-Nov-20 23:21 UTC. Time now 2014-Nov-26 05:22 UTC.
Position N 48°32' W 126°35'.

Length 144 m; draft 9.5 m.

Type: Tanker. MMSI: 565789000.

Date/timePositionNaut miles runAvg speedWind from/ knotsBaromVisibWave heightAir tempDewpointWater temp
2014-Nov-20 23:21N 48°32' W 126°35'1011.5
2014-Nov-20 22:30N 48°31' W 126°20'1212.2
2014-Nov-20 21:33N 48°31' W 126°03'1212.1
2014-Nov-20 20:33N 48°31' W 125°45'1312.6
2014-Nov-20 19:33N 48°31' W 125°25'1312.5
2014-Nov-20 18:33N 48°31' W 125°07'1212.3
2014-Nov-20 17:33N 48°31' W 124°48'1312.8
2014-Nov-20 16:33N 48°26' W 124°30'1414.4
2014-Nov-20 15:33N 48°21' W 124°10'1514.7
2014-Nov-20 14:33N 48°17' W 123°49'1413.6
2014-Nov-20 13:34N 48°18' W 123°28'1212.0
2014-Nov-20 12:34N 48°25' W 123°13'1312.9
2014-Nov-20 11:33N 48°38' W 123°15'1111.0
2014-Nov-20 10:33N 48°46' W 123°04'1110.7
2014-Nov-20 09:33N 48°56' W 123°11'1313.3
2014-Nov-20 08:33N 49°06' W 123°24'1413.8
2014-Nov-20 07:33N 49°19' W 123°17'10 9.8
2014-Nov-20 06:33N 49°18' W 123°02'6 5.7
2014-Nov-20 05:33N 49°18' W 122°53'1 0.8
2014-Nov-20 04:32N 49°17' W 122°52'0 0.0
2014-Nov-20 03:26N 49°17' W 122°52'0 0.0
2014-Nov-20 02:32N 49°17' W 122°52'0 0.0
2014-Nov-20 01:32N 49°17' W 122°52'0 0.0
2014-Nov-20 00:14N 49°17' W 122°52'0 0.0
2014-Nov-19 22:32N 49°17' W 122°52'0 0.0
2014-Nov-19 21:20N 49°17' W 122°52'0 0.0
2014-Nov-19 20:32N 49°17' W 122°52'0 0.0
2014-Nov-19 14:26N 49°17' W 122°52'0 0.0
2014-Nov-19 13:14N 49°17' W 122°52'0 0.0
2014-Nov-19 02:32N 49°17' W 122°52'0 0.0
2014-Nov-19 00:32N 49°17' W 122°52'0 0.0
2014-Nov-18 23:08N 49°17' W 122°52'0 0.0
2014-Nov-18 22:20N 49°17' W 122°52'0 0.0
2014-Nov-18 21:29N 49°17' W 122°52'2 2.1
2014-Nov-18 20:33N 49°18' W 122°55'2 2.0
2014-Nov-18 19:31N 49°18' W 122°58'0 0.0
2014-Nov-18 18:31N 49°18' W 122°58'0 0.0
2014-Nov-18 17:31N 49°18' W 122°58'0 0.0
2014-Nov-18 16:28N 49°18' W 122°58'0 0.0
2014-Nov-18 15:28N 49°18' W 122°58'0 0.0
2014-Nov-18 14:31N 49°18' W 122°58'0 0.0
2014-Nov-18 13:31N 49°18' W 122°58'0 0.0
2014-Nov-18 12:31N 49°18' W 122°58'0 0.1
2014-Nov-18 11:31N 49°18' W 122°58'0 0.1
2014-Nov-18 10:28N 49°18' W 122°58'0 0.0
2014-Nov-18 09:31N 49°18' W 122°58'0 0.0
2014-Nov-18 08:31N 49°18' W 122°58'0 0.1
2014-Nov-18 07:31N 49°18' W 122°58'0 0.1
2014-Nov-18 06:31N 49°18' W 122°58'0 0.1
2014-Nov-18 05:31N 49°18' W 122°58'0 0.0
2014-Nov-18 04:31N 49°18' W 122°58'0 0.0
2014-Nov-18 03:31N 49°18' W 122°58'0 0.0
2014-Nov-18 02:28N 49°18' W 122°58'0 0.0
2014-Nov-18 01:31N 49°18' W 122°58'0 0.0
2014-Nov-18 00:31N 49°18' W 122°58'0 0.0
2014-Nov-17 23:25N 49°18' W 122°58'0 0.0
2014-Nov-17 22:25N 49°18' W 122°58'0 0.0
2014-Nov-17 21:25N 49°18' W 122°58'0 0.0
2014-Nov-17 20:31N 49°18' W 122°58'0 0.1
2014-Nov-17 19:31N 49°18' W 122°58'0 0.1
2014-Nov-17 18:31N 49°18' W 122°58'0 0.1
2014-Nov-17 17:31N 49°18' W 122°58'0 0.1
2014-Nov-17 16:31N 49°18' W 122°58'0 0.0
2014-Nov-17 15:31N 49°18' W 122°58'0 0.0
2014-Nov-17 14:31N 49°18' W 122°58'0 0.0
2014-Nov-17 13:28N 49°18' W 122°58'0 0.0
2014-Nov-17 12:31N 49°18' W 122°58'0 0.0
2014-Nov-17 11:31N 49°18' W 122°58'0 0.0
2014-Nov-17 10:31N 49°18' W 122°58'0 0.0
2014-Nov-17 09:31N 49°18' W 122°58'0 0.0
2014-Nov-17 08:31N 49°18' W 122°58'0 0.1
2014-Nov-17 07:31N 49°18' W 122°58'0 0.0
2014-Nov-17 06:31N 49°18' W 122°58'0 0.0
2014-Nov-17 05:31N 49°18' W 122°58'0 0.0
2014-Nov-17 04:31N 49°18' W 122°58'0 0.0
2014-Nov-17 03:31N 49°18' W 122°58'0 0.0
2014-Nov-17 02:31N 49°18' W 122°58'0 0.0
2014-Nov-17 01:31N 49°18' W 122°58'0 0.0
2014-Nov-17 00:31N 49°18' W 122°58'0 0.0
2014-Nov-16 23:31N 49°18' W 122°58'0 0.0
2014-Nov-16 22:31N 49°18' W 122°58'0 0.0
2014-Nov-16 21:25N 49°18' W 122°58'0 0.0
2014-Nov-16 20:31N 49°18' W 122°58'0 0.0
2014-Nov-16 19:31N 49°18' W 122°58'0 0.1
2014-Nov-16 18:31N 49°18' W 122°58'0 0.1
2014-Nov-16 17:31N 49°18' W 122°58'0 0.0
2014-Nov-16 16:31N 49°18' W 122°58'0 0.1
2014-Nov-16 15:31N 49°18' W 122°58'0 0.0
2014-Nov-16 14:31N 49°18' W 122°58'0 0.0
2014-Nov-16 13:31N 49°18' W 122°58'0 0.0
2014-Nov-16 12:31N 49°18' W 122°58'0 0.0
2014-Nov-16 11:31N 49°18' W 122°58'0 0.0
2014-Nov-16 10:31N 49°18' W 122°58'0 0.0
2014-Nov-16 09:28N 49°18' W 122°58'0 0.0
2014-Nov-16 08:31N 49°18' W 122°58'0 0.0
2014-Nov-16 07:28N 49°18' W 122°58'0 0.0
2014-Nov-16 06:31N 49°18' W 122°58'0 0.0
2014-Nov-16 05:31N 49°18' W 122°58'0 0.0
2014-Nov-16 04:31N 49°18' W 122°58'0 0.0
2014-Nov-16 03:31N 49°18' W 122°58'0 0.0
2014-Nov-16 02:31N 49°18' W 122°58'0 0.0
2014-Nov-16 01:31N 49°18' W 122°58'0 0.1
2014-Nov-16 00:31N 49°18' W 122°58'0 0.0
2014-Nov-15 23:31N 49°18' W 122°58'0 0.0
2014-Nov-15 22:31N 49°18' W 122°58'0 0.0
2014-Nov-15 21:31N 49°18' W 122°58'0 0.0
2014-Nov-15 20:28N 49°18' W 122°58'0 0.0
2014-Nov-15 19:31N 49°18' W 122°58'0 0.0
2014-Nov-15 18:31N 49°18' W 122°58'0 0.1
2014-Nov-15 17:31N 49°18' W 122°58'0 0.0
2014-Nov-15 16:31N 49°18' W 122°58'0 0.0
2014-Nov-15 15:31N 49°18' W 122°58'0 0.0
2014-Nov-15 14:31N 49°18' W 122°58'0 0.0
2014-Nov-15 13:31N 49°18' W 122°58'0 0.0
2014-Nov-15 12:31N 49°18' W 122°58'0 0.0
2014-Nov-15 11:31N 49°18' W 122°58'0 0.0
2014-Nov-15 10:28N 49°18' W 122°58'0 0.0
2014-Nov-15 09:31N 49°18' W 122°58'0 0.0
2014-Nov-15 08:31N 49°18' W 122°58'0 0.0
2014-Nov-15 07:31N 49°18' W 122°58'0 0.0
2014-Nov-15 06:33N 49°18' W 122°58'0 0.0
2014-Nov-15 05:33N 49°18' W 122°58'0 0.0
2014-Nov-15 04:33N 49°18' W 122°58'0 0.2
2014-Nov-15 03:33N 49°18' W 122°59'6 6.1
2014-Nov-15 02:33N 49°19' W 123°08'9 9.0
2014-Nov-15 01:33N 49°14' W 123°19'1312.8
2014-Nov-15 00:33N 49°01' W 123°16'1312.9
2014-Nov-14 23:33N 48°51' W 123°03'10 9.7
2014-Nov-14 22:33N 48°43' W 123°10'1110.7
2014-Nov-14 21:33N 48°32' W 123°12'1110.7
2014-Nov-14 20:33N 48°22' W 123°17'8 8.1
2014-Nov-14 19:33N 48°16' W 123°26'1211.7
2014-Nov-14 18:33N 48°14' W 123°43'1211.4
2014-Nov-14 17:31N 48°15' W 124°00'1111.4
2014-Nov-14 16:33N 48°20' W 124°15'1111.3
2014-Nov-14 15:33N 48°25' W 124°31'1312.8
2014-Nov-14 14:33N 48°29' W 124°49'2311.4
2014-Nov-14 12:33N 48°26' W 125°23'1313.0
2014-Nov-14 11:32N 48°15' W 125°35'  
2014-Nov-11 07:33N 34°12' W 123°08'4013.4
2014-Nov-11 04:33N 33°58' W 122°22'5513.6
2014-Nov-11 00:31N 33°41' W 121°20'  
Track history (hours):
 
Tides and Currents Weather Stations Pressure Air Temp Water Temp Dewpoint Dewpoint Depression Visibility Wind Speed Wind Dir Waves Ship Positions

Diamond Orchid

Last reported at 2014-Nov-20 23:21 UTC. Time now 2014-Nov-26 05:22 UTC.
Position N 48°32' W 126°35'.

Length 144 m; draft 9.5 m.

Type: Tanker. MMSI: 565789000.

Date/timePositionNaut miles runAvg speedWind from/ knotsBaromVisibWave heightAir tempDewpointWater temp
2014-Nov-20 23:21N 48°32' W 126°35'1011.5
2014-Nov-20 22:30N 48°31' W 126°20'1212.2
2014-Nov-20 21:33N 48°31' W 126°03'1212.1
2014-Nov-20 20:33N 48°31' W 125°45'1312.6
2014-Nov-20 19:33N 48°31' W 125°25'1312.5
2014-Nov-20 18:33N 48°31' W 125°07'1212.3
2014-Nov-20 17:33N 48°31' W 124°48'1312.8
2014-Nov-20 16:33N 48°26' W 124°30'1414.4
2014-Nov-20 15:33N 48°21' W 124°10'1514.7
2014-Nov-20 14:33N 48°17' W 123°49'1413.6
2014-Nov-20 13:34N 48°18' W 123°28'1212.0
2014-Nov-20 12:34N 48°25' W 123°13'1312.9
2014-Nov-20 11:33N 48°38' W 123°15'1111.0
2014-Nov-20 10:33N 48°46' W 123°04'1110.7
2014-Nov-20 09:33N 48°56' W 123°11'1313.3
2014-Nov-20 08:33N 49°06' W 123°24'1413.8
2014-Nov-20 07:33N 49°19' W 123°17'10 9.8
2014-Nov-20 06:33N 49°18' W 123°02'6 5.7
2014-Nov-20 05:33N 49°18' W 122°53'1 0.8
2014-Nov-20 04:32N 49°17' W 122°52'0 0.0
2014-Nov-20 03:26N 49°17' W 122°52'0 0.0
2014-Nov-20 02:32N 49°17' W 122°52'0 0.0
2014-Nov-20 01:32N 49°17' W 122°52'0 0.0
2014-Nov-20 00:14N 49°17' W 122°52'0 0.0
2014-Nov-19 22:32N 49°17' W 122°52'0 0.0
2014-Nov-19 21:20N 49°17' W 122°52'0 0.0
2014-Nov-19 20:32N 49°17' W 122°52'0 0.0
2014-Nov-19 14:26N 49°17' W 122°52'0 0.0
2014-Nov-19 13:14N 49°17' W 122°52'0 0.0
2014-Nov-19 02:32N 49°17' W 122°52'0 0.0
2014-Nov-19 00:32N 49°17' W 122°52'0 0.0
2014-Nov-18 23:08N 49°17' W 122°52'0 0.0
2014-Nov-18 22:20N 49°17' W 122°52'0 0.0
2014-Nov-18 21:29N 49°17' W 122°52'2 2.1
2014-Nov-18 20:33N 49°18' W 122°55'2 2.0
2014-Nov-18 19:31N 49°18' W 122°58'0 0.0
2014-Nov-18 18:31N 49°18' W 122°58'0 0.0
2014-Nov-18 17:31N 49°18' W 122°58'0 0.0
2014-Nov-18 16:28N 49°18' W 122°58'0 0.0
2014-Nov-18 15:28N 49°18' W 122°58'0 0.0
2014-Nov-18 14:31N 49°18' W 122°58'0 0.0
2014-Nov-18 13:31N 49°18' W 122°58'0 0.0
2014-Nov-18 12:31N 49°18' W 122°58'0 0.1
2014-Nov-18 11:31N 49°18' W 122°58'0 0.1
2014-Nov-18 10:28N 49°18' W 122°58'0 0.0
2014-Nov-18 09:31N 49°18' W 122°58'0 0.0
2014-Nov-18 08:31N 49°18' W 122°58'0 0.1
2014-Nov-18 07:31N 49°18' W 122°58'0 0.1
2014-Nov-18 06:31N 49°18' W 122°58'0 0.1
2014-Nov-18 05:31N 49°18' W 122°58'0 0.0
2014-Nov-18 04:31N 49°18' W 122°58'0 0.0
2014-Nov-18 03:31N 49°18' W 122°58'0 0.0
2014-Nov-18 02:28N 49°18' W 122°58'0 0.0
2014-Nov-18 01:31N 49°18' W 122°58'0 0.0
2014-Nov-18 00:31N 49°18' W 122°58'0 0.0
2014-Nov-17 23:25N 49°18' W 122°58'0 0.0
2014-Nov-17 22:25N 49°18' W 122°58'0 0.0
2014-Nov-17 21:25N 49°18' W 122°58'0 0.0
2014-Nov-17 20:31N 49°18' W 122°58'0 0.1
2014-Nov-17 19:31N 49°18' W 122°58'0 0.1
2014-Nov-17 18:31N 49°18' W 122°58'0 0.1
2014-Nov-17 17:31N 49°18' W 122°58'0 0.1
2014-Nov-17 16:31N 49°18' W 122°58'0 0.0
2014-Nov-17 15:31N 49°18' W 122°58'0 0.0
2014-Nov-17 14:31N 49°18' W 122°58'0 0.0
2014-Nov-17 13:28N 49°18' W 122°58'0 0.0
2014-Nov-17 12:31N 49°18' W 122°58'0 0.0
2014-Nov-17 11:31N 49°18' W 122°58'0 0.0
2014-Nov-17 10:31N 49°18' W 122°58'0 0.0
2014-Nov-17 09:31N 49°18' W 122°58'0 0.0
2014-Nov-17 08:31N 49°18' W 122°58'0 0.1
2014-Nov-17 07:31N 49°18' W 122°58'0 0.0
2014-Nov-17 06:31N 49°18' W 122°58'0 0.0
2014-Nov-17 05:31N 49°18' W 122°58'0 0.0
2014-Nov-17 04:31N 49°18' W 122°58'0 0.0
2014-Nov-17 03:31N 49°18' W 122°58'0 0.0
2014-Nov-17 02:31N 49°18' W 122°58'0 0.0
2014-Nov-17 01:31N 49°18' W 122°58'0 0.0
2014-Nov-17 00:31N 49°18' W 122°58'0 0.0
2014-Nov-16 23:31N 49°18' W 122°58'0 0.0
2014-Nov-16 22:31N 49°18' W 122°58'0 0.0
2014-Nov-16 21:25N 49°18' W 122°58'0 0.0
2014-Nov-16 20:31N 49°18' W 122°58'0 0.0
2014-Nov-16 19:31N 49°18' W 122°58'0 0.1
2014-Nov-16 18:31N 49°18' W 122°58'0 0.1
2014-Nov-16 17:31N 49°18' W 122°58'0 0.0
2014-Nov-16 16:31N 49°18' W 122°58'0 0.1
2014-Nov-16 15:31N 49°18' W 122°58'0 0.0
2014-Nov-16 14:31N 49°18' W 122°58'0 0.0
2014-Nov-16 13:31N 49°18' W 122°58'0 0.0
2014-Nov-16 12:31N 49°18' W 122°58'0 0.0
2014-Nov-16 11:31N 49°18' W 122°58'0 0.0
2014-Nov-16 10:31N 49°18' W 122°58'0 0.0
2014-Nov-16 09:28N 49°18' W 122°58'0 0.0
2014-Nov-16 08:31N 49°18' W 122°58'0 0.0
2014-Nov-16 07:28N 49°18' W 122°58'0 0.0
2014-Nov-16 06:31N 49°18' W 122°58'0 0.0
2014-Nov-16 05:31N 49°18' W 122°58'0 0.0
2014-Nov-16 04:31N 49°18' W 122°58'0 0.0
2014-Nov-16 03:31N 49°18' W 122°58'0 0.0
2014-Nov-16 02:31N 49°18' W 122°58'0 0.0
2014-Nov-16 01:31N 49°18' W 122°58'0 0.1
2014-Nov-16 00:31N 49°18' W 122°58'0 0.0
2014-Nov-15 23:31N 49°18' W 122°58'0 0.0
2014-Nov-15 22:31N 49°18' W 122°58'0 0.0
2014-Nov-15 21:31N 49°18' W 122°58'0 0.0
2014-Nov-15 20:28N 49°18' W 122°58'0 0.0
2014-Nov-15 19:31N 49°18' W 122°58'0 0.0
2014-Nov-15 18:31N 49°18' W 122°58'0 0.1
2014-Nov-15 17:31N 49°18' W 122°58'0 0.0
2014-Nov-15 16:31N 49°18' W 122°58'0 0.0
2014-Nov-15 15:31N 49°18' W 122°58'0 0.0
2014-Nov-15 14:31N 49°18' W 122°58'0 0.0
2014-Nov-15 13:31N 49°18' W 122°58'0 0.0
2014-Nov-15 12:31N 49°18' W 122°58'0 0.0
2014-Nov-15 11:31N 49°18' W 122°58'0 0.0
2014-Nov-15 10:28N 49°18' W 122°58'0 0.0
2014-Nov-15 09:31N 49°18' W 122°58'0 0.0
2014-Nov-15 08:31N 49°18' W 122°58'0 0.0
2014-Nov-15 07:31N 49°18' W 122°58'0 0.0
2014-Nov-15 06:33N 49°18' W 122°58'0 0.0
2014-Nov-15 05:33N 49°18' W 122°58'0 0.0
2014-Nov-15 04:33N 49°18' W 122°58'0 0.2
2014-Nov-15 03:33N 49°18' W 122°59'6 6.1
2014-Nov-15 02:33N 49°19' W 123°08'9 9.0
2014-Nov-15 01:33N 49°14' W 123°19'1312.8
2014-Nov-15 00:33N 49°01' W 123°16'1312.9
2014-Nov-14 23:33N 48°51' W 123°03'10 9.7
2014-Nov-14 22:33N 48°43' W 123°10'1110.7
2014-Nov-14 21:33N 48°32' W 123°12'1110.7
2014-Nov-14 20:33N 48°22' W 123°17'8 8.1
2014-Nov-14 19:33N 48°16' W 123°26'1211.7
2014-Nov-14 18:33N 48°14' W 123°43'1211.4
2014-Nov-14 17:31N 48°15' W 124°00'1111.4
2014-Nov-14 16:33N 48°20' W 124°15'1111.3
2014-Nov-14 15:33N 48°25' W 124°31'1312.8
2014-Nov-14 14:33N 48°29' W 124°49'2311.4
2014-Nov-14 12:33N 48°26' W 125°23'1313.0
2014-Nov-14 11:32N 48°15' W 125°35'  
2014-Nov-11 07:33N 34°12' W 123°08'4013.4
2014-Nov-11 04:33N 33°58' W 122°22'5513.6
2014-Nov-11 00:31N 33°41' W 121°20'  

Dump ship's entire track history